sensor_id;sensor_type;location;lat;lon;timestamp;pressure;altitude;pressure_sealevel;temperature
24740;BMP280;45234;48.148;17.128;2023-03-09T00:00:18;98112.72;;;11.72
24740;BMP280;45234;48.148;17.128;2023-03-09T00:02:48;98116.34;;;11.71
24740;BMP280;45234;48.148;17.128;2023-03-09T00:05:15;98130.38;;;11.70
24740;BMP280;45234;48.148;17.128;2023-03-09T00:07:47;98132.97;;;11.70
24740;BMP280;45234;48.148;17.128;2023-03-09T00:10:15;98138.09;;;11.64
24740;BMP280;45234;48.148;17.128;2023-03-09T00:12:42;98128.25;;;11.67
24740;BMP280;45234;48.148;17.128;2023-03-09T00:15:09;98138.59;;;11.61
24740;BMP280;45234;48.148;17.128;2023-03-09T00:17:36;98137.03;;;11.60
24740;BMP280;45234;48.148;17.128;2023-03-09T00:20:04;98146.91;;;11.63
24740;BMP280;45234;48.148;17.128;2023-03-09T00:22:49;98133.41;;;11.61
24740;BMP280;45234;48.148;17.128;2023-03-09T00:25:17;98119.94;;;11.64
24740;BMP280;45234;48.148;17.128;2023-03-09T00:27:48;98105.38;;;11.63
24740;BMP280;45234;48.148;17.128;2023-03-09T00:30:16;98122.03;;;11.68
24740;BMP280;45234;48.148;17.128;2023-03-09T00:32:43;98102.63;;;11.70
24740;BMP280;45234;48.148;17.128;2023-03-09T00:35:10;98110.94;;;11.72
24740;BMP280;45234;48.148;17.128;2023-03-09T00:37:37;98125.19;;;11.70
24740;BMP280;45234;48.148;17.128;2023-03-09T00:40:07;98095.34;;;11.72
24740;BMP280;45234;48.148;17.128;2023-03-09T00:42:40;98121.06;;;11.74
24740;BMP280;45234;48.148;17.128;2023-03-09T00:45:08;98140.19;;;11.68
24740;BMP280;45234;48.148;17.128;2023-03-09T00:47:36;98135.25;;;11.66
24740;BMP280;45234;48.148;17.128;2023-03-09T00:50:03;98132.13;;;11.64
24740;BMP280;45234;48.148;17.128;2023-03-09T00:52:31;98088.78;;;11.64
24740;BMP280;45234;48.148;17.128;2023-03-09T00:54:58;98104.00;;;11.56
24740;BMP280;45234;48.148;17.128;2023-03-09T00:57:25;98083.53;;;11.54
24740;BMP280;45234;48.148;17.128;2023-03-09T00:59:53;98064.59;;;11.54
24740;BMP280;45234;48.148;17.128;2023-03-09T01:02:22;98058.84;;;11.52
24740;BMP280;45234;48.148;17.128;2023-03-09T01:04:49;98075.75;;;11.54
24740;BMP280;45234;48.148;17.128;2023-03-09T01:07:17;98082.47;;;11.55
24740;BMP280;45234;48.148;17.128;2023-03-09T01:09:45;98085.06;;;11.55
24740;BMP280;45234;48.148;17.128;2023-03-09T01:12:11;98083.03;;;11.57
24740;BMP280;45234;48.148;17.128;2023-03-09T01:14:38;98066.19;;;11.60
24740;BMP280;45234;48.148;17.128;2023-03-09T01:17:05;98058.09;;;11.56
24740;BMP280;45234;48.148;17.128;2023-03-09T01:19:32;98051.84;;;11.52
24740;BMP280;45234;48.148;17.128;2023-03-09T01:22:00;98040.94;;;11.50
24740;BMP280;45234;48.148;17.128;2023-03-09T01:24:26;98027.97;;;11.50
24740;BMP280;45234;48.148;17.128;2023-03-09T01:26:55;98034.91;;;11.40
24740;BMP280;45234;48.148;17.128;2023-03-09T01:29:22;98021.66;;;11.41
24740;BMP280;45234;48.148;17.128;2023-03-09T01:31:49;98005.06;;;11.42
24740;BMP280;45234;48.148;17.128;2023-03-09T01:34:16;98005.38;;;11.46
24740;BMP280;45234;48.148;17.128;2023-03-09T01:36:43;97989.03;;;11.45
24740;BMP280;45234;48.148;17.128;2023-03-09T01:39:10;97974.19;;;11.41
24740;BMP280;45234;48.148;17.128;2023-03-09T01:41:37;97996.94;;;11.34
24740;BMP280;45234;48.148;17.128;2023-03-09T01:44:08;97989.44;;;11.32
24740;BMP280;45234;48.148;17.128;2023-03-09T01:46:45;97977.50;;;11.31
24740;BMP280;45234;48.148;17.128;2023-03-09T01:52:13;97977.69;;;11.24
24740;BMP280;45234;48.148;17.128;2023-03-09T01:59:46;97976.81;;;11.14
24740;BMP280;45234;48.148;17.128;2023-03-09T02:02:15;97976.34;;;11.17
24740;BMP280;45234;48.148;17.128;2023-03-09T02:04:51;97970.59;;;11.15
24740;BMP280;45234;48.148;17.128;2023-03-09T02:07:22;97965.19;;;11.16
24740;BMP280;45234;48.148;17.128;2023-03-09T02:12:36;97959.16;;;11.11
24740;BMP280;45234;48.148;17.128;2023-03-09T02:15:05;97949.81;;;11.10
24740;BMP280;45234;48.148;17.128;2023-03-09T02:17:32;97950.34;;;11.12
24740;BMP280;45234;48.148;17.128;2023-03-09T02:22:39;97965.41;;;11.15
24740;BMP280;45234;48.148;17.128;2023-03-09T02:25:19;97964.41;;;11.16
24740;BMP280;45234;48.148;17.128;2023-03-09T02:27:49;97969.09;;;11.19
24740;BMP280;45234;48.148;17.128;2023-03-09T02:30:17;97974.81;;;11.21
24740;BMP280;45234;48.148;17.128;2023-03-09T02:32:45;97968.59;;;11.22
24740;BMP280;45234;48.148;17.128;2023-03-09T02:35:12;97980.00;;;11.21
24740;BMP280;45234;48.148;17.128;2023-03-09T02:37:43;97964.97;;;11.23
24740;BMP280;45234;48.148;17.128;2023-03-09T02:40:30;97966.75;;;11.17
24740;BMP280;45234;48.148;17.128;2023-03-09T02:43:01;97974.28;;;11.19
24740;BMP280;45234;48.148;17.128;2023-03-09T02:45:30;97992.47;;;11.24
24740;BMP280;45234;48.148;17.128;2023-03-09T02:47:59;97981.06;;;11.25
24740;BMP280;45234;48.148;17.128;2023-03-09T02:50:28;97981.03;;;11.20
24740;BMP280;45234;48.148;17.128;2023-03-09T02:52:55;97983.91;;;11.23
24740;BMP280;45234;48.148;17.128;2023-03-09T02:55:22;97973.31;;;11.25
24740;BMP280;45234;48.148;17.128;2023-03-09T02:57:50;97971.25;;;11.27
24740;BMP280;45234;48.148;17.128;2023-03-09T03:00:18;97961.66;;;11.27
24740;BMP280;45234;48.148;17.128;2023-03-09T03:02:48;97972.28;;;11.26
24740;BMP280;45234;48.148;17.128;2023-03-09T03:05:16;97954.91;;;11.26
24740;BMP280;45234;48.148;17.128;2023-03-09T03:07:44;97966.53;;;11.24
24740;BMP280;45234;48.148;17.128;2023-03-09T03:10:11;97947.38;;;11.25
24740;BMP280;45234;48.148;17.128;2023-03-09T03:12:38;97949.44;;;11.23
24740;BMP280;45234;48.148;17.128;2023-03-09T03:15:06;97954.56;;;11.18
24740;BMP280;45234;48.148;17.128;2023-03-09T03:17:34;97958.97;;;11.17
24740;BMP280;45234;48.148;17.128;2023-03-09T03:20:02;97948.88;;;11.16
24740;BMP280;45234;48.148;17.128;2023-03-09T03:22:32;97970.13;;;11.18
24740;BMP280;45234;48.148;17.128;2023-03-09T03:24:59;97985.44;;;11.19
24740;BMP280;45234;48.148;17.128;2023-03-09T03:27:25;97956.13;;;11.19
24740;BMP280;45234;48.148;17.128;2023-03-09T03:29:52;97950.16;;;11.18
24740;BMP280;45234;48.148;17.128;2023-03-09T03:32:20;97937.25;;;11.23
24740;BMP280;45234;48.148;17.128;2023-03-09T03:34:46;97957.22;;;11.23
24740;BMP280;45234;48.148;17.128;2023-03-09T03:37:14;97929.19;;;11.20
24740;BMP280;45234;48.148;17.128;2023-03-09T03:39:46;97953.28;;;11.15
24740;BMP280;45234;48.148;17.128;2023-03-09T03:42:13;97930.13;;;11.09
24740;BMP280;45234;48.148;17.128;2023-03-09T03:44:40;97938.28;;;10.95
24740;BMP280;45234;48.148;17.128;2023-03-09T03:47:08;97968.25;;;10.86
24740;BMP280;45234;48.148;17.128;2023-03-09T03:49:36;97960.75;;;10.85
24740;BMP280;45234;48.148;17.128;2023-03-09T03:52:06;97973.13;;;10.83
24740;BMP280;45234;48.148;17.128;2023-03-09T03:54:33;97967.94;;;10.83
24740;BMP280;45234;48.148;17.128;2023-03-09T03:57:01;97944.94;;;10.86
24740;BMP280;45234;48.148;17.128;2023-03-09T03:59:29;97961.56;;;10.90
24740;BMP280;45234;48.148;17.128;2023-03-09T04:01:56;97949.16;;;10.92
24740;BMP280;45234;48.148;17.128;2023-03-09T04:04:26;97962.94;;;10.98
24740;BMP280;45234;48.148;17.128;2023-03-09T04:06:58;97942.44;;;10.97
24740;BMP280;45234;48.148;17.128;2023-03-09T04:09:25;97947.63;;;10.97
24740;BMP280;45234;48.148;17.128;2023-03-09T04:11:53;97945.03;;;10.97
24740;BMP280;45234;48.148;17.128;2023-03-09T04:14:20;97946.13;;;11.01
24740;BMP280;45234;48.148;17.128;2023-03-09T04:16:47;97943.25;;;11.02
24740;BMP280;45234;48.148;17.128;2023-03-09T04:19:14;97955.19;;;11.03
24740;BMP280;45234;48.148;17.128;2023-03-09T04:21:41;97960.09;;;11.00
24740;BMP280;45234;48.148;17.128;2023-03-09T04:24:09;97946.13;;;11.01
24740;BMP280;45234;48.148;17.128;2023-03-09T04:26:36;97964.78;;;11.03
24740;BMP280;45234;48.148;17.128;2023-03-09T04:29:11;97964.25;;;11.01
24740;BMP280;45234;48.148;17.128;2023-03-09T04:31:38;97955.44;;;11.02
24740;BMP280;45234;48.148;17.128;2023-03-09T04:34:05;97955.00;;;11.10
24740;BMP280;45234;48.148;17.128;2023-03-09T04:36:32;97944.38;;;11.06
24740;BMP280;45234;48.148;17.128;2023-03-09T04:39:01;97946.47;;;11.09
24740;BMP280;45234;48.148;17.128;2023-03-09T04:41:31;97946.97;;;11.11
24740;BMP280;45234;48.148;17.128;2023-03-09T04:44:01;97948.88;;;11.16
24740;BMP280;45234;48.148;17.128;2023-03-09T04:46:27;97921.94;;;11.22
24740;BMP280;45234;48.148;17.128;2023-03-09T04:48:59;97917.81;;;11.26
24740;BMP280;45234;48.148;17.128;2023-03-09T04:51:26;97923.53;;;11.28
24740;BMP280;45234;48.148;17.128;2023-03-09T04:53:55;97912.63;;;11.26
24740;BMP280;45234;48.148;17.128;2023-03-09T04:56:25;97934.16;;;11.26
24740;BMP280;45234;48.148;17.128;2023-03-09T04:58:58;97937.00;;;11.25
24740;BMP280;45234;48.148;17.128;2023-03-09T05:01:27;97913.66;;;11.25
24740;BMP280;45234;48.148;17.128;2023-03-09T05:03:57;97930.25;;;11.24
24740;BMP280;45234;48.148;17.128;2023-03-09T05:06:26;97932.31;;;11.22
24740;BMP280;45234;48.148;17.128;2023-03-09T05:08:55;97954.06;;;11.21
24740;BMP280;45234;48.148;17.128;2023-03-09T05:11:26;97921.91;;;11.17
24740;BMP280;45234;48.148;17.128;2023-03-09T05:13:54;97931.72;;;11.15
24740;BMP280;45234;48.148;17.128;2023-03-09T05:16:22;97931.19;;;11.13
24740;BMP280;45234;48.148;17.128;2023-03-09T05:18:50;97933.00;;;11.12
24740;BMP280;45234;48.148;17.128;2023-03-09T05:21:22;97936.38;;;11.13
24740;BMP280;45234;48.148;17.128;2023-03-09T05:23:50;97941.31;;;11.14
24740;BMP280;45234;48.148;17.128;2023-03-09T05:26:17;97931.72;;;11.15
24740;BMP280;45234;48.148;17.128;2023-03-09T05:28:49;97933.78;;;11.13
24740;BMP280;45234;48.148;17.128;2023-03-09T05:31:17;97938.19;;;11.12
24740;BMP280;45234;48.148;17.128;2023-03-09T05:33:45;97944.94;;;11.13
24740;BMP280;45234;48.148;17.128;2023-03-09T05:36:18;97930.38;;;11.07
24740;BMP280;45234;48.148;17.128;2023-03-09T05:38:48;97921.56;;;11.08
24740;BMP280;45234;48.148;17.128;2023-03-09T05:41:16;97915.06;;;11.06
24740;BMP280;45234;48.148;17.128;2023-03-09T05:43:45;97938.41;;;11.06
24740;BMP280;45234;48.148;17.128;2023-03-09T05:46:14;97938.41;;;11.06
24740;BMP280;45234;48.148;17.128;2023-03-09T05:48:42;97907.28;;;11.06
24740;BMP280;45234;48.148;17.128;2023-03-09T05:51:11;97916.38;;;11.08
24740;BMP280;45234;48.148;17.128;2023-03-09T05:53:39;97923.91;;;11.10
24740;BMP280;45234;48.148;17.128;2023-03-09T05:56:06;97931.66;;;11.10
24740;BMP280;45234;48.148;17.128;2023-03-09T05:58:37;97926.53;;;11.15
24740;BMP280;45234;48.148;17.128;2023-03-09T06:01:05;97951.22;;;11.22
24740;BMP280;45234;48.148;17.128;2023-03-09T06:03:41;97926.91;;;11.28
24740;BMP280;45234;48.148;17.128;2023-03-09T06:06:08;97950.59;;;11.37
24740;BMP280;45234;48.148;17.128;2023-03-09T06:08:39;97947.00;;;11.43
24740;BMP280;45234;48.148;17.128;2023-03-09T06:11:10;97981.03;;;11.47
24740;BMP280;45234;48.148;17.128;2023-03-09T06:13:37;97961.56;;;11.49
24740;BMP280;45234;48.148;17.128;2023-03-09T06:16:07;98014.47;;;11.48
24740;BMP280;45234;48.148;17.128;2023-03-09T06:18:37;97984.66;;;11.51
24740;BMP280;45234;48.148;17.128;2023-03-09T06:21:07;98038.34;;;11.50
24740;BMP280;45234;48.148;17.128;2023-03-09T06:23:34;98028.00;;;11.55
24740;BMP280;45234;48.148;17.128;2023-03-09T06:26:05;98025.97;;;11.57
24740;BMP280;45234;48.148;17.128;2023-03-09T06:28:34;98016.94;;;11.65
24740;BMP280;45234;48.148;17.128;2023-03-09T06:31:06;98028.63;;;11.68
24740;BMP280;45234;48.148;17.128;2023-03-09T06:33:41;98033.09;;;11.72
24740;BMP280;45234;48.148;17.128;2023-03-09T06:36:10;98020.41;;;11.76
24740;BMP280;45234;48.148;17.128;2023-03-09T06:38:37;98037.25;;;11.73
24740;BMP280;45234;48.148;17.128;2023-03-09T06:41:04;98026.09;;;11.73
24740;BMP280;45234;48.148;17.128;2023-03-09T06:43:31;98036.47;;;11.78
24740;BMP280;45234;48.148;17.128;2023-03-09T06:45:59;98033.13;;;11.77
24740;BMP280;45234;48.148;17.128;2023-03-09T06:48:26;98012.44;;;11.87
24740;BMP280;45234;48.148;17.128;2023-03-09T06:50:54;98012.34;;;12.14
24740;BMP280;45234;48.148;17.128;2023-03-09T06:53:20;98002.66;;;12.47
24740;BMP280;45234;48.148;17.128;2023-03-09T06:55:52;98005.06;;;12.84
24740;BMP280;45234;48.148;17.128;2023-03-09T06:58:23;98003.31;;;13.05
24740;BMP280;45234;48.148;17.128;2023-03-09T07:00:50;97997.38;;;13.19
24740;BMP280;45234;48.148;17.128;2023-03-09T07:03:19;98004.88;;;13.36
24740;BMP280;45234;48.148;17.128;2023-03-09T07:05:48;98006.75;;;13.51
24740;BMP280;45234;48.148;17.128;2023-03-09T07:08:15;98008.56;;;13.60
24740;BMP280;45234;48.148;17.128;2023-03-09T07:10:42;98013.22;;;13.58
24740;BMP280;45234;48.148;17.128;2023-03-09T07:13:13;98019.47;;;13.47
24740;BMP280;45234;48.148;17.128;2023-03-09T07:15:41;98014.25;;;13.37
24740;BMP280;45234;48.148;17.128;2023-03-09T07:18:08;98025.47;;;13.27
24740;BMP280;45234;48.148;17.128;2023-03-09T07:20:36;98016.88;;;13.22
24740;BMP280;45234;48.148;17.128;2023-03-09T07:23:03;98027.25;;;13.17
24740;BMP280;45234;48.148;17.128;2023-03-09T07:25:30;98032.47;;;13.22
24740;BMP280;45234;48.148;17.128;2023-03-09T07:28:02;98022.31;;;13.25
24740;BMP280;45234;48.148;17.128;2023-03-09T07:30:31;98027.78;;;13.19
24740;BMP280;45234;48.148;17.128;2023-03-09T07:32:58;98030.66;;;13.17
24740;BMP280;45234;48.148;17.128;2023-03-09T07:35:26;98033.50;;;13.16
24740;BMP280;45234;48.148;17.128;2023-03-09T07:37:53;98029.88;;;13.17
24740;BMP280;45234;48.148;17.128;2023-03-09T07:40:21;98021.03;;;13.18
24740;BMP280;45234;48.148;17.128;2023-03-09T07:42:51;98035.06;;;13.17
24740;BMP280;45234;48.148;17.128;2023-03-09T07:45:40;98042.59;;;13.23
24740;BMP280;45234;48.148;17.128;2023-03-09T07:48:08;98040.03;;;13.39
24740;BMP280;45234;48.148;17.128;2023-03-09T07:50:35;98044.47;;;13.63
24740;BMP280;45234;48.148;17.128;2023-03-09T07:53:02;98040.03;;;13.84
24740;BMP280;45234;48.148;17.128;2023-03-09T07:55:29;98044.94;;;14.01
24740;BMP280;45234;48.148;17.128;2023-03-09T07:57:56;98047.28;;;14.13
24740;BMP280;45234;48.148;17.128;2023-03-09T08:00:24;98032.69;;;14.17
24740;BMP280;45234;48.148;17.128;2023-03-09T08:02:53;98054.56;;;14.11
24740;BMP280;45234;48.148;17.128;2023-03-09T08:05:20;98063.94;;;14.06
24740;BMP280;45234;48.148;17.128;2023-03-09T08:07:47;98061.63;;;14.05
24740;BMP280;45234;48.148;17.128;2023-03-09T08:10:17;98069.41;;;14.10
24740;BMP280;45234;48.148;17.128;2023-03-09T08:12:48;98063.69;;;14.13
24740;BMP280;45234;48.148;17.128;2023-03-09T08:15:16;98064.16;;;14.20
24740;BMP280;45234;48.148;17.128;2023-03-09T08:17:46;98066.78;;;14.25
24740;BMP280;45234;48.148;17.128;2023-03-09T08:20:13;98074.56;;;14.30
24740;BMP280;45234;48.148;17.128;2023-03-09T08:22:40;98068.78;;;14.43
24740;BMP280;45234;48.148;17.128;2023-03-09T08:25:09;98050.53;;;14.49
24740;BMP280;45234;48.148;17.128;2023-03-09T08:27:43;98059.94;;;14.45
24740;BMP280;45234;48.148;17.128;2023-03-09T08:30:11;98074.00;;;14.43
24740;BMP280;45234;48.148;17.128;2023-03-09T08:32:38;98095.69;;;14.34
24740;BMP280;45234;48.148;17.128;2023-03-09T08:35:06;98092.84;;;14.15
24740;BMP280;45234;48.148;17.128;2023-03-09T08:37:33;98113.19;;;13.98
24740;BMP280;45234;48.148;17.128;2023-03-09T08:39:59;98117.13;;;13.80
24740;BMP280;45234;48.148;17.128;2023-03-09T08:42:28;98129.31;;;13.69
24740;BMP280;45234;48.148;17.128;2023-03-09T08:44:55;98127.22;;;13.66
24740;BMP280;45234;48.148;17.128;2023-03-09T08:47:22;98144.41;;;13.62
24740;BMP280;45234;48.148;17.128;2023-03-09T08:49:49;98153.28;;;13.61
24740;BMP280;45234;48.148;17.128;2023-03-09T08:52:15;98153.00;;;13.63
24740;BMP280;45234;48.148;17.128;2023-03-09T08:54:42;98140.53;;;13.60
24740;BMP280;45234;48.148;17.128;2023-03-09T08:57:10;98145.41;;;13.56
24740;BMP280;45234;48.148;17.128;2023-03-09T08:59:36;98161.56;;;13.58
24740;BMP280;45234;48.148;17.128;2023-03-09T09:02:04;98159.75;;;13.69
24740;BMP280;45234;48.148;17.128;2023-03-09T09:04:32;98152.22;;;13.62
24740;BMP280;45234;48.148;17.128;2023-03-09T09:06:59;98153.78;;;13.63
24740;BMP280;45234;48.148;17.128;2023-03-09T09:09:26;98154.84;;;13.67
24740;BMP280;45234;48.148;17.128;2023-03-09T09:11:53;98150.13;;;13.64
24740;BMP280;45234;48.148;17.128;2023-03-09T09:14:21;98158.19;;;13.63
24740;BMP280;45234;48.148;17.128;2023-03-09T09:16:48;98163.41;;;13.63
24740;BMP280;45234;48.148;17.128;2023-03-09T09:19:17;98173.31;;;13.66
24740;BMP280;45234;48.148;17.128;2023-03-09T09:21:44;98155.88;;;13.71
24740;BMP280;45234;48.148;17.128;2023-03-09T09:24:11;98164.47;;;13.77
24740;BMP280;45234;48.148;17.128;2023-03-09T09:26:38;98170.50;;;13.93
24740;BMP280;45234;48.148;17.128;2023-03-09T09:29:05;98167.88;;;14.03
24740;BMP280;45234;48.148;17.128;2023-03-09T09:31:33;98168.41;;;14.05
24740;BMP280;45234;48.148;17.128;2023-03-09T09:34:03;98177.25;;;14.04
24740;BMP280;45234;48.148;17.128;2023-03-09T09:36:31;98179.31;;;14.07
24740;BMP280;45234;48.148;17.128;2023-03-09T09:39:01;98186.63;;;14.05
24740;BMP280;45234;48.148;17.128;2023-03-09T09:42:19;98181.41;;;13.85
24740;BMP280;45234;48.148;17.128;2023-03-09T09:44:51;98192.38;;;14.02
24740;BMP280;45234;48.148;17.128;2023-03-09T09:47:23;98194.16;;;14.06
24740;BMP280;45234;48.148;17.128;2023-03-09T09:49:53;98203.28;;;14.19
24740;BMP280;45234;48.148;17.128;2023-03-09T10:00:19;98231.94;;;14.55
24740;BMP280;45234;48.148;17.128;2023-03-09T10:10:52;98269.69;;;14.77
24740;BMP280;45234;48.148;17.128;2023-03-09T10:13:37;98252.69;;;15.00
24740;BMP280;45234;48.148;17.128;2023-03-09T10:16:10;98254.69;;;15.34
24740;BMP280;45234;48.148;17.128;2023-03-09T10:18:42;98268.38;;;15.60
24740;BMP280;45234;48.148;17.128;2023-03-09T10:21:23;98267.75;;;15.78
24740;BMP280;45234;48.148;17.128;2023-03-09T10:23:53;98274.13;;;16.01
24740;BMP280;45234;48.148;17.128;2023-03-09T10:26:45;98277.16;;;16.13
24740;BMP280;45234;48.148;17.128;2023-03-09T10:32:07;98277.97;;;16.47
24740;BMP280;45234;48.148;17.128;2023-03-09T10:34:56;98296.56;;;16.70
24740;BMP280;45234;48.148;17.128;2023-03-09T10:37:33;98260.41;;;16.77
24740;BMP280;45234;48.148;17.128;2023-03-09T10:40:12;98272.91;;;16.80
24740;BMP280;45234;48.148;17.128;2023-03-09T10:42:41;98283.22;;;16.95
24740;BMP280;45234;48.148;17.128;2023-03-09T10:50:23;98282.19;;;17.39
24740;BMP280;45234;48.148;17.128;2023-03-09T10:52:53;98313.09;;;17.36
24740;BMP280;45234;48.148;17.128;2023-03-09T10:55:41;98274.53;;;17.23
24740;BMP280;45234;48.148;17.128;2023-03-09T10:58:16;98269.94;;;17.34
24740;BMP280;45234;48.148;17.128;2023-03-09T11:00:50;98283.59;;;16.88
24740;BMP280;45234;48.148;17.128;2023-03-09T11:03:36;98273.56;;;17.19
24740;BMP280;45234;48.148;17.128;2023-03-09T11:09:17;98310.19;;;17.19
24740;BMP280;45234;48.148;17.128;2023-03-09T11:11:46;98295.91;;;17.30
24740;BMP280;45234;48.148;17.128;2023-03-09T11:14:29;98297.69;;;17.35
24740;BMP280;45234;48.148;17.128;2023-03-09T11:16:58;98295.56;;;17.56
24740;BMP280;45234;48.148;17.128;2023-03-09T11:19:28;98304.72;;;17.77
24740;BMP280;45234;48.148;17.128;2023-03-09T11:24:41;98301.84;;;18.11
24740;BMP280;45234;48.148;17.128;2023-03-09T11:27:28;98301.47;;;18.36
24740;BMP280;45234;48.148;17.128;2023-03-09T11:30:17;98318.13;;;18.73
24740;BMP280;45234;48.148;17.128;2023-03-09T11:32:46;98313.16;;;18.58
24740;BMP280;45234;48.148;17.128;2023-03-09T11:35:15;98310.47;;;18.44
24740;BMP280;45234;48.148;17.128;2023-03-09T11:38:12;98322.34;;;18.23
24740;BMP280;45234;48.148;17.128;2023-03-09T11:40:41;98346.31;;;18.35
24740;BMP280;45234;48.148;17.128;2023-03-09T11:43:21;98350.03;;;18.15
24740;BMP280;45234;48.148;17.128;2023-03-09T11:45:51;98351.31;;;18.18
24740;BMP280;45234;48.148;17.128;2023-03-09T11:48:24;98344.81;;;17.96
24740;BMP280;45234;48.148;17.128;2023-03-09T11:51:09;98344.16;;;17.67
24740;BMP280;45234;48.148;17.128;2023-03-09T11:53:52;98326.72;;;17.57
24740;BMP280;45234;48.148;17.128;2023-03-09T11:56:28;98347.47;;;17.54
24740;BMP280;45234;48.148;17.128;2023-03-09T12:04:23;98353.25;;;17.93
24740;BMP280;45234;48.148;17.128;2023-03-09T12:07:05;98349.31;;;18.09
24740;BMP280;45234;48.148;17.128;2023-03-09T12:15:16;98363.06;;;17.64
24740;BMP280;45234;48.148;17.128;2023-03-09T12:17:57;98353.00;;;17.71
24740;BMP280;45234;48.148;17.128;2023-03-09T12:20:39;98329.50;;;17.66
24740;BMP280;45234;48.148;17.128;2023-03-09T12:28:38;98371.59;;;17.51
24740;BMP280;45234;48.148;17.128;2023-03-09T12:31:27;98374.34;;;17.41
24740;BMP280;45234;48.148;17.128;2023-03-09T12:36:34;98377.13;;;17.49
24740;BMP280;45234;48.148;17.128;2023-03-09T12:42:01;98365.94;;;17.44
24740;BMP280;45234;48.148;17.128;2023-03-09T12:47:22;98373.56;;;17.64
24740;BMP280;45234;48.148;17.128;2023-03-09T12:49:51;98359.81;;;17.72
24740;BMP280;45234;48.148;17.128;2023-03-09T12:55:10;98375.69;;;17.99
24740;BMP280;45234;48.148;17.128;2023-03-09T12:57:39;98387.59;;;18.10
24740;BMP280;45234;48.148;17.128;2023-03-09T13:00:26;98386.53;;;17.93
24740;BMP280;45234;48.148;17.128;2023-03-09T13:02:57;98393.81;;;17.96
24740;BMP280;45234;48.148;17.128;2023-03-09T13:05:31;98391.06;;;17.87
24740;BMP280;45234;48.148;17.128;2023-03-09T13:08:02;98386.31;;;17.89
24740;BMP280;45234;48.148;17.128;2023-03-09T13:10:33;98374.41;;;17.97
24740;BMP280;45234;48.148;17.128;2023-03-09T13:13:30;98403.72;;;17.80
24740;BMP280;45234;48.148;17.128;2023-03-09T13:16:37;98389.97;;;17.69
24740;BMP280;45234;48.148;17.128;2023-03-09T13:21:46;98386.94;;;17.62
24740;BMP280;45234;48.148;17.128;2023-03-09T13:26:52;98403.69;;;17.38
24740;BMP280;45234;48.148;17.128;2023-03-09T13:29:25;98409.22;;;17.36
24740;BMP280;45234;48.148;17.128;2023-03-09T13:31:54;98415.59;;;17.54
24740;BMP280;45234;48.148;17.128;2023-03-09T13:34:33;98430.94;;;17.36
24740;BMP280;45234;48.148;17.128;2023-03-09T13:37:05;98427.16;;;17.48
24740;BMP280;45234;48.148;17.128;2023-03-09T13:39:36;98431.31;;;17.54
24740;BMP280;45234;48.148;17.128;2023-03-09T13:42:05;98431.34;;;17.49
24740;BMP280;45234;48.148;17.128;2023-03-09T13:44:44;98433.44;;;17.47
24740;BMP280;45234;48.148;17.128;2023-03-09T13:47:22;98428.84;;;17.39
24740;BMP280;45234;48.148;17.128;2023-03-09T13:49:50;98444.53;;;17.39
24740;BMP280;45234;48.148;17.128;2023-03-09T13:52:18;98445.06;;;17.41
24740;BMP280;45234;48.148;17.128;2023-03-09T13:54:54;98451.88;;;17.36
24740;BMP280;45234;48.148;17.128;2023-03-09T13:57:24;98449.25;;;17.42
24740;BMP280;45234;48.148;17.128;2023-03-09T14:02:32;98461.41;;;17.27
24740;BMP280;45234;48.148;17.128;2023-03-09T14:08:00;98465.38;;;17.25
24740;BMP280;45234;48.148;17.128;2023-03-09T14:10:33;98458.00;;;17.27
24740;BMP280;45234;48.148;17.128;2023-03-09T14:13:17;98477.19;;;17.22
24740;BMP280;45234;48.148;17.128;2023-03-09T14:16:02;98475.16;;;17.14
24740;BMP280;45234;48.148;17.128;2023-03-09T14:21:03;98476.03;;;17.33
24740;BMP280;45234;48.148;17.128;2023-03-09T14:23:43;98479.47;;;17.29
24740;BMP280;45234;48.148;17.128;2023-03-09T14:26:10;98484.88;;;17.38
24740;BMP280;45234;48.148;17.128;2023-03-09T14:28:56;98491.16;;;17.36
24740;BMP280;45234;48.148;17.128;2023-03-09T14:31:23;98489.59;;;17.35
24740;BMP280;45234;48.148;17.128;2023-03-09T14:36:37;98486.53;;;17.28
24740;BMP280;45234;48.148;17.128;2023-03-09T14:39:24;98481.88;;;17.25
24740;BMP280;45234;48.148;17.128;2023-03-09T14:47:00;98506.63;;;17.38
24740;BMP280;45234;48.148;17.128;2023-03-09T14:49:27;98502.75;;;17.30
24740;BMP280;45234;48.148;17.128;2023-03-09T14:51:54;98503.28;;;17.27
24740;BMP280;45234;48.148;17.128;2023-03-09T14:54:21;98489.13;;;17.33
24740;BMP280;45234;48.148;17.128;2023-03-09T14:56:47;98486.53;;;17.28
24740;BMP280;45234;48.148;17.128;2023-03-09T14:59:17;98498.34;;;17.26
24740;BMP280;45234;48.148;17.128;2023-03-09T15:01:48;98492.34;;;17.25
24740;BMP280;45234;48.148;17.128;2023-03-09T15:04:28;98499.47;;;17.20
24740;BMP280;45234;48.148;17.128;2023-03-09T15:06:56;98509.66;;;17.16
24740;BMP280;45234;48.148;17.128;2023-03-09T15:09:22;98503.94;;;17.19
24740;BMP280;45234;48.148;17.128;2023-03-09T15:11:50;98503.38;;;17.17
24740;BMP280;45234;48.148;17.128;2023-03-09T15:14:30;98508.47;;;17.09
24740;BMP280;45234;48.148;17.128;2023-03-09T15:17:01;98505.47;;;17.20
24740;BMP280;45234;48.148;17.128;2023-03-09T15:19:28;98509.66;;;17.16
24740;BMP280;45234;48.148;17.128;2023-03-09T15:21:56;98511.28;;;17.12
24740;BMP280;45234;48.148;17.128;2023-03-09T15:24:26;98512.94;;;17.03
24740;BMP280;45234;48.148;17.128;2023-03-09T15:26:55;98512.41;;;17.01
24740;BMP280;45234;48.148;17.128;2023-03-09T15:29:22;98516.13;;;17.00
24740;BMP280;45234;48.148;17.128;2023-03-09T15:31:48;98513.50;;;16.95
24740;BMP280;45234;48.148;17.128;2023-03-09T15:34:15;98509.41;;;16.89
24740;BMP280;45234;48.148;17.128;2023-03-09T15:36:42;98520.16;;;16.82
24740;BMP280;45234;48.148;17.128;2023-03-09T15:39:09;98527.25;;;16.77
24740;BMP280;45234;48.148;17.128;2023-03-09T15:41:37;98517.38;;;16.69
24740;BMP280;45234;48.148;17.128;2023-03-09T15:44:04;98521.53;;;16.70
24740;BMP280;45234;48.148;17.128;2023-03-09T15:46:31;98532.00;;;16.70